createdAt,value
2022-08-04T00:02:11.294Z,22.40
2022-08-04T00:04:46.146Z,22.40
2022-08-04T00:07:44.959Z,22.40
2022-08-04T00:10:11.355Z,22.40
2022-08-04T00:12:45.163Z,22.30
2022-08-04T00:15:16.845Z,22.30
2022-08-04T00:17:47.747Z,22.30
2022-08-04T00:20:19.106Z,22.30
2022-08-04T00:22:50.249Z,22.30
2022-08-04T00:25:18.273Z,22.20
2022-08-04T00:27:47.671Z,22.10
2022-08-04T00:30:15.983Z,22.00
2022-08-04T00:32:43.976Z,22.00
2022-08-04T00:35:14.971Z,22.00
2022-08-04T00:37:46.218Z,21.90
2022-08-04T00:40:29.849Z,21.90
2022-08-04T00:43:11.586Z,21.80
2022-08-04T00:46:25.291Z,21.70
2022-08-04T00:49:17.976Z,21.70
2022-08-04T00:52:30.812Z,21.60
2022-08-04T00:54:54.481Z,21.60
2022-08-04T00:57:37.579Z,21.60
2022-08-04T01:00:09.478Z,21.50
2022-08-04T01:02:40.594Z,21.50
2022-08-04T01:05:21.437Z,21.50
2022-08-04T01:08:07.662Z,21.50
2022-08-04T01:10:47.796Z,21.40
2022-08-04T01:13:48.531Z,21.40
2022-08-04T01:16:18.810Z,21.30
2022-08-04T01:18:56.472Z,21.20
2022-08-04T01:21:46.294Z,21.20
2022-08-04T01:24:56.131Z,21.20
2022-08-04T01:27:35.689Z,21.20
2022-08-04T01:30:08.246Z,21.10
2022-08-04T01:32:40.133Z,21.10
2022-08-04T01:35:21.885Z,21.10
2022-08-04T01:38:01.856Z,21.00
2022-08-04T01:40:47.420Z,21.00
2022-08-04T01:43:16.108Z,21.00
2022-08-04T01:45:51.113Z,20.90
2022-08-04T01:48:23.979Z,20.90
2022-08-04T01:50:53.476Z,20.90
2022-08-04T01:53:23.053Z,20.90
2022-08-04T01:55:54.685Z,20.90
2022-08-04T01:58:25.265Z,20.90
2022-08-04T02:01:02.350Z,20.80
2022-08-04T02:04:20.207Z,20.80
2022-08-04T02:06:32.807Z,20.70
2022-08-04T02:09:10.049Z,20.70
2022-08-04T02:11:40.455Z,20.70
2022-08-04T02:14:40.271Z,20.60
2022-08-04T02:17:13.507Z,20.60
2022-08-04T02:20:11.983Z,20.50
2022-08-04T02:22:44.826Z,20.60
2022-08-04T02:25:15.294Z,20.50
2022-08-04T02:27:59.780Z,20.50
2022-08-04T02:30:32.379Z,20.50
2022-08-04T02:33:04.757Z,20.50
2022-08-04T02:35:39.379Z,20.50
2022-08-04T02:38:25.491Z,20.50
2022-08-04T02:40:59.149Z,20.40
2022-08-04T02:43:50.915Z,20.30
2022-08-04T02:46:19.758Z,20.30
2022-08-04T02:48:50.236Z,20.30
2022-08-04T02:51:23.033Z,20.20
2022-08-04T02:53:54.443Z,20.20
2022-08-04T02:56:24.080Z,20.20
2022-08-04T02:58:57.437Z,20.10
2022-08-04T03:01:25.590Z,20.10
2022-08-04T03:04:07.200Z,20.00
2022-08-04T03:07:15.921Z,20.00
2022-08-04T03:10:16.191Z,20.00
2022-08-04T03:13:10.786Z,20.00
2022-08-04T03:16:04.287Z,20.00
2022-08-04T03:19:14.015Z,20.00
2022-08-04T03:22:14.691Z,19.90
2022-08-04T03:25:15.659Z,19.90
2022-08-04T03:28:09.682Z,19.90
2022-08-04T03:30:52.599Z,20.00
2022-08-04T03:33:41.027Z,19.90
2022-08-04T03:36:43.731Z,19.80
2022-08-04T03:39:44.934Z,19.80
2022-08-04T03:42:48.486Z,19.70
2022-08-04T03:45:47.088Z,19.80
2022-08-04T03:48:39.001Z,19.70
2022-08-04T03:51:52.017Z,19.70
2022-08-04T03:55:02.406Z,19.70
2022-08-04T03:57:53.181Z,19.70
2022-08-04T04:00:25.582Z,19.70
2022-08-04T04:03:37.492Z,19.60
2022-08-04T04:06:39.233Z,19.60
2022-08-04T04:09:32.938Z,19.60
2022-08-04T04:12:33.569Z,19.50
2022-08-04T04:15:36.354Z,19.50
2022-08-04T04:18:23.557Z,19.60
2022-08-04T04:21:28.117Z,19.60
2022-08-04T04:24:12.095Z,19.70
2022-08-04T04:26:55.961Z,19.70
2022-08-04T04:30:01.413Z,19.80
2022-08-04T04:32:51.013Z,19.90
2022-08-04T04:35:30.203Z,19.90
2022-08-04T04:38:27.046Z,20.00
2022-08-04T04:41:06.337Z,20.10
2022-08-04T04:44:01.250Z,20.20
2022-08-04T04:46:38.643Z,20.30
2022-08-04T04:49:18.171Z,20.40
2022-08-04T04:51:50.681Z,20.50
2022-08-04T04:54:29.367Z,20.60
2022-08-04T04:57:06.524Z,20.70
2022-08-04T04:59:37.774Z,20.80
2022-08-04T05:02:29.646Z,20.80
2022-08-04T05:05:20.823Z,20.90
2022-08-04T05:08:42.948Z,21.00
2022-08-04T05:11:37.288Z,21.10
2022-08-04T05:14:34.916Z,21.30
2022-08-04T05:17:03.955Z,21.50
2022-08-04T05:19:44.469Z,21.70
2022-08-04T05:22:23.277Z,21.80
2022-08-04T05:24:56.065Z,21.90
2022-08-04T05:27:29.464Z,22.10
2022-08-04T05:30:03.079Z,22.30
2022-08-04T05:32:37.914Z,22.40
2022-08-04T05:35:10.721Z,22.60
2022-08-04T05:37:42.674Z,22.70
2022-08-04T05:40:13.751Z,22.90
2022-08-04T05:42:42.488Z,23.10
2022-08-04T05:45:11.019Z,23.20
2022-08-04T05:47:39.247Z,23.40
2022-08-04T05:50:09.223Z,23.60
2022-08-04T05:52:40.124Z,23.80
2022-08-04T05:55:12.554Z,23.90
2022-08-04T05:57:50.799Z,24.20
2022-08-04T06:00:40.405Z,24.40
2022-08-04T06:03:10.796Z,24.60
2022-08-04T06:05:42.571Z,24.80
2022-08-04T06:08:13.867Z,25.10
2022-08-04T06:10:45.604Z,25.20
2022-08-04T06:13:49.497Z,25.50
2022-08-04T06:16:07.651Z,25.70
2022-08-04T06:20:00.031Z,25.90
2022-08-04T06:21:29.209Z,25.90
2022-08-04T06:24:04.264Z,26.10
2022-08-04T06:26:37.048Z,26.30
2022-08-04T06:29:05.609Z,26.60
2022-08-04T06:32:27.250Z,26.90
2022-08-04T06:34:35.570Z,27.10
2022-08-04T06:37:05.124Z,27.40
2022-08-04T06:39:35.452Z,27.50
2022-08-04T06:42:22.102Z,27.70
2022-08-04T06:44:55.019Z,27.80
2022-08-04T06:47:25.019Z,28.00
2022-08-04T06:51:24.987Z,28.20
2022-08-04T06:52:45.684Z,28.20
2022-08-04T06:55:15.212Z,28.40
2022-08-04T06:57:46.391Z,28.50
2022-08-04T07:00:17.737Z,28.80
2022-08-04T07:02:47.456Z,28.90
2022-08-04T07:05:16.342Z,29.00
2022-08-04T07:07:56.781Z,29.20
2022-08-04T07:10:28.659Z,29.40
2022-08-04T07:12:57.662Z,29.70
2022-08-04T07:15:26.793Z,29.90
2022-08-04T07:17:59.961Z,30.10
2022-08-04T07:20:33.007Z,30.10
2022-08-04T07:23:05.485Z,30.00
2022-08-04T07:25:58.799Z,30.00
2022-08-04T07:28:25.959Z,30.00
2022-08-04T07:30:55.062Z,30.10
2022-08-04T07:33:23.751Z,30.20
2022-08-04T07:36:09.113Z,30.40
2022-08-04T07:38:51.220Z,30.60
2022-08-04T07:41:40.311Z,30.90
2022-08-04T07:44:09.082Z,31.10
2022-08-04T07:46:37.637Z,31.10
2022-08-04T07:49:06.355Z,31.00
2022-08-04T07:51:35.327Z,31.00
2022-08-04T07:54:05.159Z,31.20
2022-08-04T07:56:36.284Z,31.40
2022-08-04T07:59:06.229Z,31.40
2022-08-04T08:01:36.300Z,31.50
2022-08-04T08:04:06.974Z,31.50
2022-08-04T08:06:42.630Z,31.90
2022-08-04T08:09:14.354Z,32.10
2022-08-04T08:12:35.442Z,32.30
2022-08-04T08:14:35.079Z,32.60
2022-08-04T08:17:05.264Z,32.70
2022-08-04T08:19:34.640Z,32.90
2022-08-04T08:22:03.031Z,32.90
2022-08-04T08:24:32.258Z,33.00
2022-08-04T08:27:04.393Z,33.20
2022-08-04T08:29:35.142Z,33.20
2022-08-04T08:32:08.305Z,33.30
2022-08-04T08:34:38.730Z,33.40
2022-08-04T08:37:14.629Z,33.70
2022-08-04T08:39:50.546Z,33.80
2022-08-04T08:42:40.885Z,34.10
2022-08-04T08:45:25.568Z,34.20
2022-08-04T08:48:22.609Z,34.30
2022-08-04T08:51:24.954Z,34.50
2022-08-04T08:54:17.876Z,34.80
2022-08-04T08:56:56.870Z,34.80
2022-08-04T08:59:46.372Z,34.90
2022-08-04T09:02:39.854Z,34.90
2022-08-04T09:05:28.567Z,34.70
2022-08-04T09:08:20.647Z,34.70
2022-08-04T09:10:51.299Z,34.70
2022-08-04T09:13:26.808Z,34.50
2022-08-04T09:16:03.602Z,34.30
2022-08-04T09:18:38.576Z,34.20
2022-08-04T09:21:14.479Z,34.30
2022-08-04T09:23:52.799Z,34.40
2022-08-04T09:26:27.538Z,34.80
2022-08-04T09:29:02.636Z,35.10
2022-08-04T09:31:49.086Z,35.20
2022-08-04T09:34:41.481Z,35.20
2022-08-04T09:37:18.042Z,35.50
2022-08-04T09:39:58.047Z,35.70
2022-08-04T09:42:38.941Z,35.40
2022-08-04T09:45:22.477Z,35.20
2022-08-04T09:48:00.281Z,35.30
2022-08-04T09:50:35.216Z,35.30
2022-08-04T09:53:18.967Z,35.70
2022-08-04T09:56:01.112Z,36.00
2022-08-04T09:58:45.452Z,36.20
2022-08-04T10:01:22.618Z,36.30
2022-08-04T10:03:56.549Z,36.30
2022-08-04T10:06:59.952Z,36.20
2022-08-04T10:09:53.337Z,36.40
2022-08-04T10:12:33.938Z,36.20
2022-08-04T10:15:11.127Z,36.30
2022-08-04T10:17:51.910Z,36.60
2022-08-04T10:20:47.147Z,36.60
2022-08-04T10:23:32.903Z,36.60
2022-08-04T10:26:30.062Z,36.30
2022-08-04T10:29:04.105Z,36.30
2022-08-04T10:31:36.901Z,36.50
2022-08-04T10:34:12.762Z,36.70
2022-08-04T10:36:54.519Z,36.50
2022-08-04T10:39:43.184Z,36.50
2022-08-04T10:42:22.756Z,36.80
2022-08-04T10:45:05.111Z,37.00
2022-08-04T10:47:37.867Z,36.90
2022-08-04T10:50:10.009Z,36.90
2022-08-04T10:52:44.089Z,36.70
2022-08-04T10:55:18.319Z,36.70
2022-08-04T10:57:50.930Z,36.70
2022-08-04T11:00:24.023Z,36.80
2022-08-04T11:02:57.179Z,37.00
2022-08-04T11:05:31.607Z,37.10
2022-08-04T11:08:10.090Z,37.30
2022-08-04T11:10:46.089Z,37.40
2022-08-04T11:13:22.170Z,37.50
2022-08-04T11:16:03.373Z,37.10
2022-08-04T11:18:39.471Z,36.90
2022-08-04T11:21:13.745Z,37.00
2022-08-04T11:23:48.571Z,37.10
2022-08-04T11:26:24.176Z,37.50
2022-08-04T11:29:03.245Z,37.50
2022-08-04T11:31:33.882Z,37.30
2022-08-04T11:34:06.495Z,37.10
2022-08-04T11:36:40.671Z,37.20
2022-08-04T11:39:14.970Z,37.40
2022-08-04T11:41:49.371Z,37.40
2022-08-04T11:44:25.236Z,37.40
2022-08-04T11:46:57.947Z,37.30
2022-08-04T11:49:56.081Z,37.20
2022-08-04T11:52:24.327Z,37.20
2022-08-04T11:54:55.160Z,37.30
2022-08-04T11:57:23.937Z,37.40
2022-08-04T12:00:09.955Z,37.40
2022-08-04T12:03:05.395Z,37.50
2022-08-04T12:05:37.876Z,37.30
2022-08-04T12:08:25.201Z,37.10
2022-08-04T12:11:07.775Z,37.10
2022-08-04T12:13:41.931Z,37.00
2022-08-04T12:16:16.845Z,37.00
2022-08-04T12:18:54.916Z,37.20
2022-08-04T12:21:30.490Z,37.40
2022-08-04T12:24:03.110Z,37.50
2022-08-04T12:26:38.459Z,37.50
2022-08-04T12:29:10.975Z,37.40
2022-08-04T12:31:46.615Z,37.10
2022-08-04T12:34:18.217Z,37.10
2022-08-04T12:36:55.819Z,37.10
2022-08-04T12:39:26.762Z,37.10
2022-08-04T12:42:03.283Z,37.10
2022-08-04T12:44:37.600Z,36.80
2022-08-04T12:47:27.887Z,36.60
2022-08-04T12:50:01.715Z,36.60
2022-08-04T12:52:59.187Z,36.60
2022-08-04T12:55:23.195Z,36.70
2022-08-04T12:57:54.603Z,36.20
2022-08-04T13:00:31.975Z,36.00
2022-08-04T13:03:10.007Z,35.90
2022-08-04T13:05:41.637Z,36.10
2022-08-04T13:08:11.393Z,36.10
2022-08-04T13:10:41.836Z,36.10
2022-08-04T13:13:18.334Z,36.20
2022-08-04T13:15:57.738Z,36.40
2022-08-04T13:18:32.367Z,36.60
2022-08-04T13:21:19.424Z,36.80
2022-08-04T13:26:54.852Z,37.00
2022-08-04T13:30:00.602Z,36.90
2022-08-04T13:30:24.215Z,37.00
2022-08-04T13:32:22.210Z,37.10
2022-08-04T13:34:56.862Z,37.20
2022-08-04T13:37:31.501Z,37.10
2022-08-04T13:40:01.138Z,37.00
2022-08-04T13:42:30.048Z,36.70
2022-08-04T13:45:01.778Z,36.50
2022-08-04T13:47:33.342Z,36.60
2022-08-04T13:50:18.118Z,36.80
2022-08-04T13:52:47.959Z,37.00
2022-08-04T13:55:28.363Z,37.00
2022-08-04T13:58:03.425Z,37.00
2022-08-04T14:00:46.333Z,37.00
2022-08-04T14:03:24.292Z,37.00
2022-08-04T14:06:16.344Z,37.00
2022-08-04T14:08:52.643Z,36.90
2022-08-04T14:12:10.461Z,36.90
2022-08-04T14:14:16.644Z,36.60
2022-08-04T14:17:00.483Z,36.40
2022-08-04T14:19:36.361Z,36.20
2022-08-04T14:22:05.372Z,36.30
2022-08-04T14:24:33.247Z,36.40
2022-08-04T14:27:01.492Z,36.40
2022-08-04T14:29:38.577Z,36.20
2022-08-04T14:32:12.633Z,36.20
2022-08-04T14:34:45.711Z,36.20
2022-08-04T14:37:19.377Z,36.30
2022-08-04T14:40:08.086Z,36.50
2022-08-04T14:42:42.489Z,36.60
2022-08-04T14:45:12.198Z,36.60
2022-08-04T14:47:52.580Z,36.50
2022-08-04T14:50:22.767Z,36.40
2022-08-04T14:52:50.672Z,36.50
2022-08-04T14:55:21.028Z,36.50
2022-08-04T14:58:36.167Z,36.30
2022-08-04T15:00:37.980Z,36.20
2022-08-04T15:03:09.454Z,35.90
2022-08-04T15:06:03.796Z,35.80
2022-08-04T15:08:30.892Z,35.60
2022-08-04T15:11:02.327Z,35.50
2022-08-04T15:13:30.715Z,35.40
2022-08-04T15:16:06.015Z,35.30
2022-08-04T15:18:39.104Z,35.20
2022-08-04T15:21:08.040Z,35.10
2022-08-04T15:23:38.573Z,35.00
2022-08-04T15:26:13.837Z,34.70
2022-08-04T15:28:45.787Z,34.40
2022-08-04T15:32:04.255Z,34.10
2022-08-04T15:34:04.956Z,33.80
2022-08-04T15:36:38.977Z,33.40
2022-08-04T15:39:18.347Z,33.10
2022-08-04T15:41:57.396Z,32.90
2022-08-04T15:44:55.192Z,32.60
2022-08-04T15:47:27.305Z,32.40
2022-08-04T15:50:09.068Z,31.90
2022-08-04T15:53:10.710Z,31.60
2022-08-04T15:55:43.063Z,31.10
2022-08-04T15:58:13.242Z,31.10
2022-08-04T16:01:16.403Z,30.90
2022-08-04T16:03:58.551Z,30.70
2022-08-04T16:06:45.172Z,30.70
2022-08-04T16:09:24.486Z,31.10
2022-08-04T16:11:52.894Z,30.80
2022-08-04T16:14:33.634Z,30.40
2022-08-04T16:17:19.456Z,29.90
2022-08-04T16:20:04.534Z,29.60
2022-08-04T16:22:41.877Z,29.50
2022-08-04T16:25:10.511Z,29.20
2022-08-04T16:27:45.434Z,28.90
2022-08-04T16:30:15.353Z,28.40
2022-08-04T16:32:45.185Z,27.70
2022-08-04T16:35:29.546Z,27.20
2022-08-04T16:40:56.579Z,26.70
2022-08-04T16:43:29.533Z,26.40
2022-08-04T16:45:59.726Z,26.10
2022-08-04T16:48:29.431Z,26.00
2022-08-04T16:51:04.773Z,25.90
2022-08-04T16:54:02.598Z,25.80
2022-08-04T16:56:33.003Z,25.70
2022-08-04T16:59:08.129Z,25.80
2022-08-04T17:01:36.783Z,25.90
2022-08-04T17:04:06.589Z,25.70
2022-08-04T17:06:36.856Z,25.40
2022-08-04T17:09:10.726Z,25.00
2022-08-04T17:11:40.636Z,24.80
2022-08-04T17:14:08.895Z,24.80
2022-08-04T17:16:38.475Z,24.60
2022-08-04T17:19:24.303Z,24.60
2022-08-04T17:22:02.175Z,24.60
2022-08-04T17:24:30.569Z,24.40
2022-08-04T17:27:00.023Z,24.30
2022-08-04T17:29:43.247Z,24.20
2022-08-04T17:32:18.522Z,24.20
2022-08-04T17:34:49.157Z,24.40
2022-08-04T17:37:41.238Z,24.50
2022-08-04T17:40:11.536Z,24.40
2022-08-04T17:42:41.828Z,24.40
2022-08-04T17:45:49.129Z,24.40
2022-08-04T17:48:00.660Z,24.30
2022-08-04T17:50:34.754Z,24.60
2022-08-04T17:53:12.200Z,24.70
2022-08-04T17:55:43.138Z,24.60
2022-08-04T17:58:21.551Z,24.70
2022-08-04T18:01:10.736Z,25.00
2022-08-04T18:03:52.860Z,25.00
2022-08-04T18:06:22.692Z,25.00
2022-08-04T18:08:57.453Z,25.20
2022-08-04T18:11:29.928Z,25.20
2022-08-04T18:14:11.549Z,25.20
2022-08-04T18:16:46.002Z,25.20
2022-08-04T18:19:15.445Z,25.00
2022-08-04T18:21:46.990Z,25.00
2022-08-04T18:24:35.434Z,25.00
2022-08-04T18:27:16.611Z,24.90
2022-08-04T18:29:50.204Z,24.80
2022-08-04T18:32:34.708Z,24.80
2022-08-04T18:38:05.336Z,24.80
2022-08-04T18:40:52.851Z,24.90
2022-08-04T18:43:28.183Z,24.90
2022-08-04T18:45:59.926Z,24.90
2022-08-04T18:48:36.935Z,24.90
2022-08-04T18:51:23.039Z,24.90
2022-08-04T18:53:55.239Z,24.90
2022-08-04T18:59:16.233Z,25.00
2022-08-04T19:02:13.574Z,25.00
2022-08-04T19:04:36.926Z,25.00
2022-08-04T19:07:29.207Z,24.90
2022-08-04T19:09:57.837Z,24.80
2022-08-04T19:12:28.477Z,24.70
2022-08-04T19:14:58.251Z,24.60
2022-08-04T19:17:53.219Z,24.60
2022-08-04T19:20:25.800Z,24.60
2022-08-04T19:24:26.333Z,24.50
2022-08-04T19:26:01.242Z,24.50
2022-08-04T19:28:34.399Z,24.40
2022-08-04T19:31:04.194Z,24.50
2022-08-04T19:33:58.951Z,24.40
2022-08-04T19:36:27.747Z,24.30
2022-08-04T19:38:57.534Z,24.20
2022-08-04T19:41:26.516Z,24.20
2022-08-04T19:43:55.072Z,24.20
2022-08-04T19:46:24.847Z,24.10
2022-08-04T19:48:59.745Z,24.20
2022-08-04T19:51:29.991Z,24.10
2022-08-04T19:54:04.169Z,24.00
2022-08-04T19:56:40.315Z,24.10
2022-08-04T19:59:10.027Z,23.90
2022-08-04T20:01:44.817Z,23.90
2022-08-04T20:04:15.450Z,23.90
2022-08-04T20:06:44.077Z,23.90
2022-08-04T20:09:26.149Z,23.90
2022-08-04T20:11:55.889Z,23.80
2022-08-04T20:14:31.245Z,23.70
2022-08-04T20:16:59.853Z,23.50
2022-08-04T20:19:30.469Z,23.40
2022-08-04T20:21:58.805Z,23.40
2022-08-04T20:24:38.168Z,23.40
2022-08-04T20:27:15.414Z,23.30
2022-08-04T20:29:48.534Z,23.20
2022-08-04T20:32:19.194Z,23.20
2022-08-04T20:34:49.547Z,23.20
2022-08-04T20:37:19.440Z,23.10
2022-08-04T20:39:54.645Z,23.00
2022-08-04T20:42:27.537Z,23.00
2022-08-04T20:45:02.914Z,22.90
2022-08-04T20:50:29.505Z,22.80
2022-08-04T20:52:58.750Z,22.80
2022-08-04T20:55:29.659Z,22.70
2022-08-04T20:58:03.188Z,22.70
2022-08-04T21:00:31.857Z,22.60
2022-08-04T21:02:59.998Z,22.60
2022-08-04T21:05:31.586Z,22.60
2022-08-04T21:08:00.173Z,22.60
2022-08-04T21:10:29.868Z,22.60
2022-08-04T21:12:57.932Z,22.60
2022-08-04T21:15:58.093Z,22.50
2022-08-04T21:18:16.798Z,22.50
2022-08-04T21:20:48.062Z,22.50
2022-08-04T21:23:16.600Z,22.50
2022-08-04T21:25:45.500Z,22.40
2022-08-04T21:28:20.112Z,22.30
2022-08-04T21:30:54.009Z,22.30
2022-08-04T21:33:49.793Z,22.30
2022-08-04T21:36:14.353Z,22.30
2022-08-04T21:38:51.124Z,22.30
2022-08-04T21:41:24.580Z,22.20
2022-08-04T21:43:54.823Z,22.20
2022-08-04T21:46:23.219Z,22.20
2022-08-04T21:48:51.643Z,22.10
2022-08-04T21:51:59.197Z,22.10
2022-08-04T21:54:11.641Z,22.00
2022-08-04T21:56:50.900Z,21.90
2022-08-04T21:59:28.552Z,21.90
2022-08-04T22:02:00.356Z,21.90
2022-08-04T22:04:29.065Z,21.80
2022-08-04T22:06:58.249Z,21.70
2022-08-04T22:09:31.606Z,21.70
2022-08-04T22:12:07.144Z,21.70
2022-08-04T22:14:39.421Z,21.70
2022-08-04T22:17:07.322Z,21.70
2022-08-04T22:19:55.180Z,21.70
2022-08-04T22:22:27.209Z,21.60
2022-08-04T22:25:01.568Z,21.60
2022-08-04T22:27:55.021Z,21.60
2022-08-04T22:30:24.128Z,21.50
2022-08-04T22:32:56.954Z,21.40
2022-08-04T22:35:36.545Z,21.30
2022-08-04T22:38:37.058Z,21.30
2022-08-04T22:41:03.481Z,21.20
2022-08-04T22:43:34.422Z,21.30
2022-08-04T22:46:06.484Z,21.30
2022-08-04T22:48:35.580Z,21.30
2022-08-04T22:51:04.271Z,21.20
2022-08-04T22:53:33.875Z,21.20
2022-08-04T22:56:10.033Z,21.10
2022-08-04T22:58:45.238Z,21.10
2022-08-04T23:01:15.177Z,21.10
2022-08-04T23:03:50.871Z,21.00
2022-08-04T23:06:24.958Z,21.00
2022-08-04T23:08:54.767Z,21.00
2022-08-04T23:11:22.568Z,21.00
2022-08-04T23:13:50.477Z,21.00
2022-08-04T23:16:18.971Z,21.00
2022-08-04T23:18:49.096Z,21.00
2022-08-04T23:21:24.249Z,21.00
2022-08-04T23:23:57.130Z,21.00
2022-08-04T23:26:30.687Z,21.00
2022-08-04T23:28:58.791Z,21.00
2022-08-04T23:31:41.183Z,20.90
2022-08-04T23:34:14.870Z,20.90
2022-08-04T23:36:47.542Z,20.80
2022-08-04T23:39:16.888Z,20.70
2022-08-04T23:41:55.255Z,20.50
2022-08-04T23:44:26.868Z,20.50
2022-08-04T23:47:02.402Z,20.60
2022-08-04T23:49:44.302Z,20.50
2022-08-04T23:52:23.136Z,20.40
2022-08-04T23:54:59.261Z,20.30
2022-08-04T23:57:31.479Z,20.20
